createdAt,value
2023-04-17T00:08:32.403Z,16.6
2023-04-17T00:24:06.545Z,16.4
2023-04-17T00:39:40.765Z,13.8
2023-04-17T00:55:14.861Z,13.7
2023-04-17T01:10:48.865Z,15.3
2023-04-17T01:26:22.938Z,13.7
2023-04-17T01:41:57.013Z,16.9
2023-04-17T01:57:31.098Z,12.1
2023-04-17T02:13:05.051Z,16.6
2023-04-17T02:28:39.032Z,13.2
2023-04-17T02:44:13.444Z,17.2
2023-04-17T02:59:47.264Z,16.6
2023-04-17T03:15:21.366Z,17.1
2023-04-17T03:30:55.419Z,20.6
2023-04-17T03:46:29.549Z,16.6
2023-04-17T04:02:04.050Z,20.2
2023-04-17T04:17:38.446Z,14.8
2023-04-17T04:33:12.682Z,15.2
2023-04-17T04:48:46.621Z,16.5
2023-04-17T05:04:21.262Z,13.8
2023-04-17T05:19:55.808Z,19
2023-04-17T05:35:29.803Z,13.9
2023-04-17T05:51:03.898Z,13.9
2023-04-17T06:06:38.325Z,13.9
2023-04-17T06:22:12.510Z,16.7
2023-04-17T06:37:46.531Z,16.4
2023-04-17T06:53:20.548Z,14.9
2023-04-17T07:08:56.203Z,13.2
2023-04-17T07:24:30.474Z,12
2023-04-17T07:40:04.530Z,10.6
2023-04-17T07:55:38.597Z,11.7
2023-04-17T08:11:12.554Z,13.1
2023-04-17T08:26:46.707Z,13.7
2023-04-17T08:42:21.289Z,13.6
2023-04-17T08:57:55.805Z,18.9
2023-04-17T09:13:30.211Z,23.1
2023-04-17T09:29:04.351Z,24.9
2023-04-17T09:44:38.860Z,24.9
2023-04-17T10:00:12.845Z,24.4
2023-04-17T10:15:46.844Z,23.7
2023-04-17T10:31:21.789Z,21.9
2023-04-17T10:46:56.090Z,21.7
2023-04-17T11:02:30.876Z,18.9
2023-04-17T11:18:05.536Z,25.2
2023-04-17T11:33:39.801Z,18.6
2023-04-17T11:49:14.247Z,15.6
2023-04-17T12:04:49.098Z,12.6
2023-04-17T12:20:26.739Z,14.5
2023-04-17T12:36:00.968Z,12.3
2023-04-17T12:51:35.178Z,15.1
2023-04-17T13:07:09.180Z,11.2
2023-04-17T13:22:43.058Z,11.8
2023-04-17T13:38:17.185Z,11.6
2023-04-17T13:53:51.213Z,15.8
2023-04-17T14:09:25.319Z,11.5
2023-04-17T14:24:59.492Z,12.8
2023-04-17T14:40:33.776Z,10.5
2023-04-17T14:56:07.827Z,12.9
2023-04-17T15:11:42.195Z,11.2
2023-04-17T15:27:16.251Z,12.8
2023-04-17T15:42:50.298Z,12.2
2023-04-17T15:58:24.556Z,12.2
2023-04-17T16:13:58.661Z,13.8
2023-04-17T16:29:32.787Z,13.9
2023-04-17T16:45:06.867Z,9.9
2023-04-17T17:00:41.691Z,10
2023-04-17T17:16:16.392Z,12.1
2023-04-17T17:31:51.389Z,14.1
2023-04-17T17:47:25.760Z,14.9
2023-04-17T18:03:00.341Z,13.4
2023-04-17T18:18:35.179Z,22.7
2023-04-17T18:34:09.355Z,25.9
2023-04-17T18:49:43.465Z,35.7
2023-04-17T19:05:17.706Z,22.8
2023-04-17T19:20:52.056Z,14.9
2023-04-17T19:36:26.063Z,17.7
2023-04-17T19:52:00.209Z,16
2023-04-17T20:07:34.335Z,17.1
2023-04-17T20:23:08.574Z,16.9
2023-04-17T20:38:42.756Z,20.5
2023-04-17T20:54:16.742Z,32.3
2023-04-17T21:09:50.753Z,17.6
2023-04-17T21:25:24.903Z,24.8
2023-04-17T21:40:59.889Z,23.8
2023-04-17T21:56:33.854Z,16.9
2023-04-17T22:12:07.869Z,17.6
2023-04-17T22:27:41.945Z,20.7
2023-04-17T22:43:15.946Z,16.8
2023-04-17T22:58:49.943Z,21.2
2023-04-17T23:14:23.967Z,16.1
2023-04-17T23:29:58.123Z,10.6
2023-04-17T23:45:32.148Z,14.3
